Latest Weather Observations for Curtin

IDW60801

Issued at 7:03 pm WST Saturday 16 December 2017 (issued every 30 minutes, with the page automatically refreshed every 10 minutes)

About weather observations | Map of weather stations | Latest weather observations for WA | Other Formats
Station Details ID: 003080 Name: CURTIN AERO Lat: -17.58 Lon: 123.83 Height: 77.5 m
Data from the previous 72 hours. | See also: Recent months at Curtin
Date/Time
WST
Temp
°C
App
Temp
°C
Dew
Point
°C
Rel
Hum
%
Delta-T
°C
Wind Press
QNH
hPa
Press
MSL
hPa
Rain since
9am
mm
Dir  Spd
km/h
Gust
km/h
Spd
kts
Gust
kts
16/07:00pm 31.1 32.5 20.4 53 7.1 W 13 17 7 9 1006.0 1005.4 0.0
16/06:30pm 31.7 32.9 20.6 51 7.4 W 15 20 8 11 1005.6 1005.0 0.0
16/06:00pm 32.3 33.5 22.1 55 7.0 WNW 19 26 10 14 1005.0 1004.4 0.0
16/05:30pm 33.6 33.8 21.4 48 8.3 NW 22 35 12 19 1004.7 1004.0 0.0
16/05:00pm 36.2 36.1 19.6 37 11.1 NW 19 24 10 13 1004.1 1003.4 0.0
16/04:30pm 37.6 37.9 19.5 34 12.1 NW 17 30 9 16 1004.1 1003.4 0.0
16/04:00pm 38.5 39.5 19.4 33 12.8 N 13 20 7 11 1003.9 1003.2 0.0
16/03:30pm 38.7 38.0 16.3 26 14.4 NNE 15 28 8 15 1003.6 1002.9 0.0
16/03:00pm 39.5 39.9 16.4 25 15.0 NE 9 15 5 8 1003.7 1003.0 0.0
16/02:30pm 39.2 39.0 16.8 27 14.5 NNE 13 20 7 11 1004.3 1003.6 0.0
16/02:00pm 38.6 37.6 15.7 26 14.6 W 15 20 8 11 1004.7 1004.0 0.0
16/01:30pm 38.6 38.6 16.3 27 14.3 NW 11 20 6 11 1005.3 1004.7 0.0
16/01:00pm 37.6 37.7 16.5 28 13.6 NNW 11 19 6 10 1005.9 1005.3 0.0
16/12:30pm 37.7 38.5 18.2 32 12.8 SSW 11 17 6 9 1006.3 1005.7 0.0
16/12:00pm 37.2 38.2 17.7 31 12.7 WNW 9 17 5 9 1006.9 1006.3 0.0
16/11:30am 36.7 38.1 18.7 34 11.9 WSW 9 17 5 9 1007.5 1006.9 0.0
16/11:00am 35.8 37.1 19.3 38 11.0 WNW 11 17 6 9 1007.9 1007.3 0.0
16/10:30am 35.5 37.8 19.8 39 10.5 WSW 7 13 4 7 1008.4 1007.8 0.0
16/10:00am 33.5 34.6 19.6 44 9.2 NNW 13 20 7 11 1008.6 1008.0 0.0
16/09:30am 33.5 35.2 21.0 48 8.4 NNW 13 24 7 13 1008.6 1008.0 0.0
16/09:00am 32.4 33.8 20.3 48 8.1 NNW 13 19 7 10 1009.0 1008.4 0.0
16/08:30am 31.2 32.9 20.2 52 7.3 NNW 11 20 6 11 1009.1 1008.5 0.0
16/08:00am 30.6 32.8 20.5 54 6.7 NW 9 15 5 8 1008.7 1008.1 0.0
16/07:30am 29.8 30.5 21.2 60 5.8 WSW 19 26 10 14 1008.3 1007.7 0.0
16/07:00am 27.8 28.2 20.9 66 4.6 WSW 20 28 11 15 1008.0 1007.4 0.0
16/06:30am 26.7 26.8 20.3 68 4.2 WSW 20 28 11 15 1008.0 1007.4 0.0
16/06:00am 25.7 26.6 20.0 71 3.7 WSW 15 20 8 11 1007.8 1007.2 0.0
16/05:30am 25.0 25.2 19.4 71 3.6 WSW 17 20 9 11 1007.6 1007.0 0.0
16/05:00am 25.2 26.0 19.1 69 3.9 WSW 13 17 7 9 1007.2 1006.6 0.0
16/04:30am 25.3 26.5 19.0 68 4.0 SW 11 15 6 8 1006.9 1006.3 0.0
16/04:00am 26.1 27.6 18.8 64 4.7 S 9 11 5 6 1006.6 1006.0 0.0
16/03:30am 26.1 27.7 18.2 61 5.0 E 7 15 4 8 1006.7 1006.1 0.0
16/03:00am 25.9 27.0 18.1 62 5.0 NE 9 13 5 7 1006.4 1005.8 0.0
16/02:30am 25.3 26.8 18.0 64 4.6 NE 7 13 4 7 1006.3 1005.7 0.0
16/02:00am 25.4 26.2 18.1 64 4.6 NE 11 19 6 10 1006.8 1006.2 0.0
16/01:30am 24.8 24.3 18.7 69 3.9 NE 19 30 10 16 1006.9 1006.3 0.0
16/01:00am 23.9 23.1 20.0 79 2.5 NE 24 35 13 19 1007.0 1006.4 0.0
16/12:30am 24.4 22.9 20.9 81 2.3 NE 30 50 16 27 1008.0 1007.4 0.0
16/12:05am 28.6 29.5 21.6 66 4.7 ENE 19 48 10 26 1007.4 1006.8 0.0
16/12:00am 29.6 32.3 22.1 64 5.1 NE 11 17 6 9 1007.2 1006.6 0.0
 
Date/Time
WST
Temp
°C
App
Temp
°C
Dew
Point
°C
Rel
Hum
%
Delta-T
°C
Wind Press
QNH
hPa
Press
MSL
hPa
Rain since
9am
mm
Dir  Spd
km/h
Gust
km/h
Spd
kts
Gust
kts
15/11:30pm 30.2 33.3 22.1 62 5.5 W 9 13 5 7 1007.1 1006.5 0.0
15/11:00pm 30.3 31.7 21.9 60 5.7 WNW 17 22 9 12 1006.1 1005.5 0.0
15/10:30pm 31.2 35.8 21.7 57 6.4 CALM 0 6 0 3 1007.8 1007.2 0.0
15/10:00pm 31.4 33.8 21.6 56 6.6 WNW 11 17 6 9 1007.7 1007.1 0.0
15/09:30pm 31.9 32.9 21.7 54 6.9 WSW 19 26 10 14 1007.9 1007.3 0.0
15/09:00pm 32.1 34.1 22.2 56 6.8 WNW 15 20 8 11 1007.3 1006.7 0.0
15/08:30pm 31.8 36.2 25.6 69 4.4 NNW 13 20 7 11 1006.3 1005.7 0.0
15/08:00pm 32.0 36.0 25.6 69 4.6 NNW 15 22 8 12 1005.6 1005.0 0.0
15/07:30pm 32.5 35.6 24.8 64 5.4 NNW 17 26 9 14 1004.8 1004.2 0.0
15/07:00pm 33.1 36.1 24.0 59 6.4 NNW 15 20 8 11 1004.3 1003.6 0.0
15/06:30pm 34.0 35.2 21.4 47 8.6 N 17 24 9 13 1003.7 1003.0 0.0
15/06:00pm 34.7 36.6 21.4 46 9.1 N 13 19 7 10 1003.2 1002.5 0.0
15/05:30pm 35.2 37.0 21.8 45 9.2 N 15 22 8 12 1002.9 1002.2 0.0
15/05:00pm 36.2 37.7 22.0 43 9.8 N 17 30 9 16 1002.5 1001.8 0.0
15/04:30pm 37.1 37.8 21.2 39 10.9 N 19 30 10 16 1002.3 1001.6 0.0
15/04:00pm 37.6 38.2 21.3 39 11.2 NNE 20 33 11 18 1002.5 1001.8 0.0
15/03:30pm 39.5 40.9 18.7 29 13.8 ENE 9 13 5 7 1002.5 1001.8 0.0
15/03:00pm 40.2 41.0 18.2 27 14.6 WNW 11 17 6 9 1002.6 1001.9 0.0
15/02:30pm 40.3 41.3 19.4 30 14.1 WNW 13 19 7 10 1002.9 1002.2 0.0
15/02:00pm 39.1 40.3 18.3 29 13.8 NNW 9 15 5 8 1003.4 1002.7 0.0
15/01:30pm 38.8 40.5 18.1 29 13.6 W 6 13 3 7 1003.5 1002.8 0.0
15/01:00pm 38.5 39.8 18.4 31 13.3 WNW 9 17 5 9 1004.0 1003.3 0.0
15/12:30pm 38.3 39.3 18.7 31 13.0 N 11 17 6 9 1004.5 1003.8 0.0
15/12:00pm 37.6 39.0 19.5 34 12.1 NNE 11 19 6 10 1005.1 1004.5 0.0
15/11:30am 37.9 39.5 20.7 36 11.7 NNW 13 37 7 20 1005.5 1004.9 0.0
15/11:00am 36.0 37.9 21.4 42 10.0 W 13 22 7 12 1006.1 1005.5 0.0
15/10:30am 35.2 37.6 21.5 45 9.3 WSW 11 17 6 9 1006.6 1006.0 0.0
15/10:00am 33.6 36.1 21.7 49 8.1 SSW 11 17 6 9 1007.3 1006.7 0.0
15/09:30am 32.9 35.5 22.0 52 7.4 WSW 11 17 6 9 1007.5 1006.9 0.0
15/09:00am 32.9 35.2 22.7 55 7.0 WSW 15 20 8 11 1007.8 1007.2 0.0
15/08:30am 32.2 33.5 22.6 57 6.6 WSW 20 28 11 15 1007.8 1007.2 0.0
15/08:00am 30.8 33.5 23.5 65 5.1 W 15 20 8 11 1007.6 1007.0 0.0
15/07:30am 30.1 32.4 23.5 67 4.6 W 17 20 9 11 1007.3 1006.7 0.0
15/07:00am 29.0 32.1 24.1 75 3.4 WNW 15 19 8 10 1007.2 1006.6 0.0
15/06:30am 28.3 32.5 24.7 81 2.5 NNW 11 15 6 8 1006.9 1006.3 0.0
15/06:00am 26.6 31.6 24.8 90 1.3 NNW 7 11 4 6 1006.6 1006.0 0.0
15/05:30am 25.5 30.9 24.5 94 0.7 WNW 4 11 2 6 1006.5 1005.9 0.0
15/05:00am 25.5 31.3 24.5 94 0.7 N 2 6 1 3 1006.1 1005.5 0.0
15/04:30am 25.4 30.0 24.2 93 0.8 N 7 11 4 6 1005.7 1005.1 0.0
15/04:00am 25.3 29.5 24.1 93 0.8 NNE 9 11 5 6 1005.4 1004.8 0.0
15/03:30am 25.5 29.8 23.7 90 1.2 NNW 7 9 4 5 1005.3 1004.7 0.0
15/03:00am 26.2 31.1 23.7 86 1.7 WNW 4 9 2 5 1005.1 1004.5 0.0
15/02:30am 26.9 30.8 24.2 85 1.9 SW 11 15 6 8 1005.0 1004.4 0.0
15/02:00am 27.1 30.0 24.4 85 1.9 SW 17 20 9 11 1005.0 1004.4 0.0
15/01:30am 27.3 30.9 24.4 84 2.0 SSW 13 17 7 9 1004.9 1004.3 0.0
15/01:00am 27.5 31.1 24.4 83 2.2 SW 13 15 7 8 1004.7 1004.0 0.0
15/12:30am 27.7 31.5 24.1 81 2.5 W 11 15 6 8 1004.6 1003.9 0.0
15/12:00am 28.0 30.2 24.0 79 2.8 WSW 19 22 10 12 1004.7 1004.0 0.0
 
Date/Time
WST
Temp
°C
App
Temp
°C
Dew
Point
°C
Rel
Hum
%
Delta-T
°C
Wind Press
QNH
hPa
Press
MSL
hPa
Rain since
9am
mm
Dir  Spd
km/h
Gust
km/h
Spd
kts
Gust
kts
14/11:30pm 28.3 29.6 23.4 75 3.4 SW 22 30 12 16 1005.2 1004.6 0.0
14/11:00pm 28.7 29.7 22.9 71 4.0 SW 22 28 12 15 1005.4 1004.8 0.0
14/10:30pm 29.3 30.0 22.3 66 4.8 WSW 22 32 12 17 1005.7 1005.1 0.0
14/10:00pm 30.1 29.5 21.2 59 6.0 WSW 26 35 14 19 1006.1 1005.5 0.0
14/09:30pm 30.8 31.4 21.0 56 6.6 SW 19 28 10 15 1005.9 1005.3 0.0
14/09:00pm 31.4 32.9 22.7 60 6.0 WSW 19 22 10 12 1005.6 1005.0 0.0
14/08:30pm 31.5 35.8 24.9 68 4.7 WNW 11 15 6 8 1005.2 1004.6 0.0
14/08:00pm 31.6 35.9 24.2 65 5.2 NNW 9 13 5 7 1004.8 1004.2 0.0
14/07:30pm 32.2 35.8 23.7 61 5.9 NW 11 17 6 9 1004.6 1003.9 0.0
14/07:00pm 32.6 35.6 23.3 58 6.5 NW 13 19 7 10 1004.4 1003.7 0.0
14/06:30pm 33.3 36.3 23.3 55 6.9 NW 13 19 7 10 1003.8 1003.1 0.0
14/06:00pm 34.3 36.6 22.7 50 8.0 NNW 15 24 8 13 1003.5 1002.8 0.0
14/05:30pm 35.6 37.7 22.5 46 9.1 NW 15 24 8 13 1003.2 1002.5 0.0
14/05:00pm 36.6 39.6 23.4 46 9.3 NW 13 20 7 11 1003.0 1002.3 0.0
14/04:30pm 37.4 39.7 22.7 42 10.2 NW 15 24 8 13 1003.0 1002.3 0.0
14/04:00pm 38.0 40.3 22.8 41 10.6 NW 15 20 8 11 1003.1 1002.4 0.0
14/03:30pm 38.8 40.7 20.6 35 12.4 WSW 11 20 6 11 1003.3 1002.6 0.0
14/03:00pm 38.0 38.6 20.3 35 12.0 W 17 24 9 13 1003.5 1002.8 0.0
14/02:30pm 38.5 38.8 20.8 36 12.1 WSW 20 30 11 16 1003.8 1003.1 0.0
14/02:00pm 37.6 37.9 20.8 37 11.5 WSW 20 28 11 15 1004.3 1003.6 0.0
14/01:30pm 37.1 37.8 21.2 39 10.9 WSW 19 30 10 16 1004.9 1004.3 0.0
14/01:00pm 36.2 37.7 21.2 41 10.2 WSW 15 19 8 10 1005.5 1004.9 0.0
14/12:30pm 35.6 36.5 21.5 44 9.6 W 19 28 10 15 1006.1 1005.5 0.0
14/12:00pm 36.0 38.4 22.2 45 9.5 SE 13 24 7 13 1006.5 1005.9 0.0
14/11:30am 33.4 36.9 22.8 53 7.3 N 9 17 5 9 1007.0 1006.4 0.0
14/11:00am 33.3 37.0 23.9 58 6.6 NW 11 17 6 9 1007.4 1006.8 0.0
14/10:30am 33.5 36.4 23.2 54 7.1 WNW 13 20 7 11 1007.7 1007.1 0.0
14/10:00am 33.8 37.1 23.2 54 7.4 W 11 17 6 9 1008.2 1007.6 0.0
14/09:30am 31.3 34.3 23.4 63 5.5 WNW 13 19 7 10 1008.4 1007.8 0.0
14/09:00am 31.7 34.6 23.8 63 5.5 WSW 15 20 8 11 1008.4 1007.8 0.0
14/08:30am 31.1 34.3 23.7 64 5.1 WSW 13 22 7 12 1008.3 1007.7 0.0
14/08:24am 30.5 33.1 23.9 68 4.6 W 17 22 9 12 1008.2 1007.6 0.0
14/08:00am 30.1 33.5 24.7 73 3.8 WSW 15 20 8 11 1008.4 1007.8 0.0
14/07:30am 29.5 34.7 24.8 76 3.3 S 6 13 3 7 1008.5 1007.9 0.0
14/07:00am 28.5 33.8 25.3 83 2.3 NNE 7 9 4 5 1008.1 1007.5 0.0
14/06:30am 28.3 33.6 25.3 84 2.1 NE 7 9 4 5 1007.6 1007.0 0.0
14/06:00am 27.0 32.2 24.8 88 1.5 NNE 6 7 3 4 1007.1 1006.5 0.0
14/05:30am 25.8 29.9 24.0 90 1.2 N 9 11 5 6 1006.8 1006.2 0.0
14/05:00am 25.5 30.0 23.7 90 1.2 NW 6 7 3 4 1005.9 1005.3 0.0
14/04:30am 25.7 30.0 23.6 88 1.4 NW 7 9 4 5 1005.4 1004.8 0.0
14/04:00am 26.5 31.2 24.3 88 1.5 W 7 11 4 6 1005.2 1004.6 0.0
14/03:30am 26.5 32.1 24.2 87 1.6 W 2 9 1 5 1005.0 1004.4 0.0
14/03:00am 26.8 31.4 24.1 85 1.9 WNW 7 11 4 6 1004.8 1004.2 0.0
14/02:30am 26.9 31.2 24.2 85 1.9 WSW 9 11 5 6 1004.7 1004.0 0.0
14/02:00am 26.4 31.3 23.1 82 2.3 WNW 2 6 1 3 1005.1 1004.5 0.0
14/01:30am 27.2 31.3 23.0 78 2.9 WNW 6 7 3 4 1005.2 1004.6 0.0
14/01:00am 27.7 31.4 23.3 77 3.0 W 9 13 5 7 1005.0 1004.4 0.0
14/12:30am 27.9 31.4 22.8 74 3.5 W 9 13 5 7 1005.2 1004.6 0.0
14/12:00am 28.4 31.4 22.6 71 4.0 W 11 13 6 7 1005.6 1005.0 0.0
 
Date/Time
WST
Temp
°C
App
Temp
°C
Dew
Point
°C
Rel
Hum
%
Delta-T
°C
Wind Press
QNH
hPa
Press
MSL
hPa
Rain since
9am
mm
Dir  Spd
km/h
Gust
km/h
Spd
kts
Gust
kts
13/11:30pm 28.7 31.8 22.2 68 4.4 WNW 9 13 5 7 1005.8 1005.2 0.0
13/11:00pm 29.3 31.1 21.8 64 5.1 W 15 19 8 10 1006.1 1005.5 0.0
13/10:30pm 29.8 31.6 21.2 60 5.8 W 13 19 7 10 1006.4 1005.8 0.0
13/10:00pm 30.3 31.9 20.8 56 6.4 W 13 19 7 10 1006.6 1006.0 0.0
13/09:30pm 30.9 31.8 20.8 55 6.8 W 17 20 9 11 1006.5 1005.9 0.0
13/09:00pm 31.5 32.8 20.1 50 7.6 W 13 19 7 10 1006.4 1005.8 0.0
13/08:30pm 32.3 32.7 19.9 48 8.2 W 17 26 9 14 1006.0 1005.4 0.0
13/08:00pm 33.1 32.7 18.1 41 9.7 W 17 22 9 12 1005.4 1004.8 0.0
13/07:30pm 34.0 32.3 17.2 36 10.8 W 22 33 12 18 1004.9 1004.3 0.0

Other Formats:

Comma delimited format used in spreadsheet applications
http://www.bom.gov.au/fwo/IDW60801/IDW60801.94204.axf

JavaScript Object Notation format (JSON) in row-major order
http://www.bom.gov.au/fwo/IDW60801/IDW60801.94204.json